sensor_id;sensor_type;location;lat;lon;timestamp;pressure;altitude;pressure_sealevel;temperature;humidity
62928;BME280;51070;52.236;-0.892;2024-03-23T00:55:18;100529.98;;;5.78;80.31
62928;BME280;51070;52.236;-0.892;2024-03-23T00:57:44;100532.45;;;5.75;80.49
62928;BME280;51070;52.236;-0.892;2024-03-23T01:00:09;100532.52;;;5.73;80.53
62928;BME280;51070;52.236;-0.892;2024-03-23T01:02:35;100531.27;;;5.72;80.69
62928;BME280;51070;52.236;-0.892;2024-03-23T01:05:01;100521.71;;;5.70;80.72
62928;BME280;51070;52.236;-0.892;2024-03-23T01:07:26;100521.58;;;5.67;80.71
62928;BME280;51070;52.236;-0.892;2024-03-23T01:09:51;100519.65;;;5.66;80.93
62928;BME280;51070;52.236;-0.892;2024-03-23T01:12:18;100512.59;;;5.65;80.87
62928;BME280;51070;52.236;-0.892;2024-03-23T01:14:43;100511.89;;;5.65;80.83
62928;BME280;51070;52.236;-0.892;2024-03-23T01:17:09;100503.67;;;5.65;80.84
62928;BME280;51070;52.236;-0.892;2024-03-23T01:19:34;100501.80;;;5.65;80.63
62928;BME280;51070;52.236;-0.892;2024-03-23T01:22:00;100494.57;;;5.65;80.51
62928;BME280;51070;52.236;-0.892;2024-03-23T01:24:25;100495.25;;;5.65;80.70
62928;BME280;51070;52.236;-0.892;2024-03-23T01:26:50;100495.54;;;5.64;80.63
62928;BME280;51070;52.236;-0.892;2024-03-23T01:29:15;100494.52;;;5.64;80.73
62928;BME280;51070;52.236;-0.892;2024-03-23T01:31:41;100495.98;;;5.62;80.74
62928;BME280;51070;52.236;-0.892;2024-03-23T01:34:06;100489.32;;;5.59;81.21
62928;BME280;51070;52.236;-0.892;2024-03-23T01:36:31;100481.53;;;5.58;81.16
62928;BME280;51070;52.236;-0.892;2024-03-23T01:38:56;100475.44;;;5.56;81.21
62928;BME280;51070;52.236;-0.892;2024-03-23T01:41:23;100479.27;;;5.54;81.40
62928;BME280;51070;52.236;-0.892;2024-03-23T01:43:49;100478.21;;;5.49;81.35
62928;BME280;51070;52.236;-0.892;2024-03-23T01:46:14;100479.60;;;5.46;81.50
62928;BME280;51070;52.236;-0.892;2024-03-23T01:48:40;100478.07;;;5.43;81.69
62928;BME280;51070;52.236;-0.892;2024-03-23T01:51:05;100477.90;;;5.39;81.70
62928;BME280;51070;52.236;-0.892;2024-03-23T01:53:31;100476.70;;;5.36;81.96
62928;BME280;51070;52.236;-0.892;2024-03-23T01:55:56;100473.45;;;5.33;82.13
62928;BME280;51070;52.236;-0.892;2024-03-23T01:58:22;100475.71;;;5.30;82.53
62928;BME280;51070;52.236;-0.892;2024-03-23T02:00:47;100477.31;;;5.27;82.65
62928;BME280;51070;52.236;-0.892;2024-03-23T02:03:25;100477.85;;;5.25;82.74
62928;BME280;51070;52.236;-0.892;2024-03-23T02:05:51;100476.73;;;5.23;82.81
62928;BME280;51070;52.236;-0.892;2024-03-23T02:08:17;100477.39;;;5.22;82.85
62928;BME280;51070;52.236;-0.892;2024-03-23T02:10:43;100478.40;;;5.22;83.05
62928;BME280;51070;52.236;-0.892;2024-03-23T02:13:08;100483.08;;;5.23;83.10
62928;BME280;51070;52.236;-0.892;2024-03-23T02:15:33;100477.64;;;5.24;83.17
62928;BME280;51070;52.236;-0.892;2024-03-23T02:17:59;100476.47;;;5.25;82.88
62928;BME280;51070;52.236;-0.892;2024-03-23T02:20:24;100475.48;;;5.25;83.06
62928;BME280;51070;52.236;-0.892;2024-03-23T02:22:55;100473.61;;;5.26;83.10
62928;BME280;51070;52.236;-0.892;2024-03-23T02:25:21;100472.30;;;5.27;83.27
62928;BME280;51070;52.236;-0.892;2024-03-23T02:27:46;100472.61;;;5.26;83.24
62928;BME280;51070;52.236;-0.892;2024-03-23T02:30:11;100469.11;;;5.25;83.31
62928;BME280;51070;52.236;-0.892;2024-03-23T02:32:36;100469.19;;;5.22;83.33
62928;BME280;51070;52.236;-0.892;2024-03-23T02:35:02;100468.62;;;5.22;83.54
62928;BME280;51070;52.236;-0.892;2024-03-23T02:37:27;100464.64;;;5.21;83.48
62928;BME280;51070;52.236;-0.892;2024-03-23T02:39:53;100461.63;;;5.19;83.52
62928;BME280;51070;52.236;-0.892;2024-03-23T02:42:18;100457.95;;;5.17;83.56
62928;BME280;51070;52.236;-0.892;2024-03-23T02:44:44;100455.58;;;5.14;83.74
62928;BME280;51070;52.236;-0.892;2024-03-23T02:47:09;100452.24;;;5.13;83.93
62928;BME280;51070;52.236;-0.892;2024-03-23T02:49:35;100453.65;;;5.10;84.23
62928;BME280;51070;52.236;-0.892;2024-03-23T02:52:00;100449.65;;;5.09;84.05
62928;BME280;51070;52.236;-0.892;2024-03-23T02:54:26;100444.14;;;5.08;84.15
62928;BME280;51070;52.236;-0.892;2024-03-23T02:56:51;100448.91;;;5.08;84.20
62928;BME280;51070;52.236;-0.892;2024-03-23T02:59:16;100449.77;;;5.08;84.19
62928;BME280;51070;52.236;-0.892;2024-03-23T03:01:41;100450.10;;;5.07;84.24
62928;BME280;51070;52.236;-0.892;2024-03-23T03:04:07;100448.20;;;5.07;84.35
62928;BME280;51070;52.236;-0.892;2024-03-23T03:06:32;100450.77;;;5.06;84.31
62928;BME280;51070;52.236;-0.892;2024-03-23T03:08:57;100451.81;;;5.07;84.27
62928;BME280;51070;52.236;-0.892;2024-03-23T03:11:23;100454.00;;;5.06;84.45
62928;BME280;51070;52.236;-0.892;2024-03-23T03:13:48;100450.00;;;5.05;84.48
62928;BME280;51070;52.236;-0.892;2024-03-23T03:16:13;100447.21;;;5.04;84.48
62928;BME280;51070;52.236;-0.892;2024-03-23T03:18:39;100441.02;;;5.04;84.40
62928;BME280;51070;52.236;-0.892;2024-03-23T03:21:08;100438.41;;;5.03;84.59
62928;BME280;51070;52.236;-0.892;2024-03-23T03:23:39;100429.34;;;5.03;84.56
62928;BME280;51070;52.236;-0.892;2024-03-23T03:26:05;100427.58;;;5.02;84.64
62928;BME280;51070;52.236;-0.892;2024-03-23T03:28:31;100422.75;;;5.01;84.52
62928;BME280;51070;52.236;-0.892;2024-03-23T03:30:57;100425.23;;;5.00;84.71
62928;BME280;51070;52.236;-0.892;2024-03-23T03:33:23;100428.59;;;4.98;84.75
62928;BME280;51070;52.236;-0.892;2024-03-23T03:35:48;100427.66;;;4.97;84.74
62928;BME280;51070;52.236;-0.892;2024-03-23T03:38:14;100421.38;;;4.94;85.01
62928;BME280;51070;52.236;-0.892;2024-03-23T03:40:39;100423.70;;;4.93;85.04
62928;BME280;51070;52.236;-0.892;2024-03-23T03:43:04;100421.02;;;4.91;85.17
62928;BME280;51070;52.236;-0.892;2024-03-23T03:45:30;100419.05;;;4.89;85.07
62928;BME280;51070;52.236;-0.892;2024-03-23T03:47:55;100417.05;;;4.87;85.25
62928;BME280;51070;52.236;-0.892;2024-03-23T03:50:21;100417.21;;;4.83;85.45
62928;BME280;51070;52.236;-0.892;2024-03-23T03:52:46;100416.19;;;4.77;85.48
62928;BME280;51070;52.236;-0.892;2024-03-23T03:55:15;100412.31;;;4.74;85.65
62928;BME280;51070;52.236;-0.892;2024-03-23T03:57:41;100415.47;;;4.73;85.68
62928;BME280;51070;52.236;-0.892;2024-03-23T04:00:07;100409.86;;;4.70;85.99
62928;BME280;51070;52.236;-0.892;2024-03-23T04:02:36;100413.88;;;4.68;86.26
62928;BME280;51070;52.236;-0.892;2024-03-23T04:05:01;100415.40;;;4.64;86.47
62928;BME280;51070;52.236;-0.892;2024-03-23T04:07:28;100415.10;;;4.62;86.69
62928;BME280;51070;52.236;-0.892;2024-03-23T04:09:53;100412.92;;;4.59;87.05
62928;BME280;51070;52.236;-0.892;2024-03-23T04:12:19;100402.77;;;4.58;87.15
62928;BME280;51070;52.236;-0.892;2024-03-23T04:14:45;100404.31;;;4.58;87.18
62928;BME280;51070;52.236;-0.892;2024-03-23T04:17:10;100399.33;;;4.58;87.28
62928;BME280;51070;52.236;-0.892;2024-03-23T04:19:35;100395.92;;;4.58;87.51
62928;BME280;51070;52.236;-0.892;2024-03-23T04:22:01;100393.52;;;4.58;87.60
62928;BME280;51070;52.236;-0.892;2024-03-23T04:24:26;100384.98;;;4.58;87.80
62928;BME280;51070;52.236;-0.892;2024-03-23T04:26:52;100381.23;;;4.58;87.88
62928;BME280;51070;52.236;-0.892;2024-03-23T04:29:17;100380.18;;;4.58;87.89
62928;BME280;51070;52.236;-0.892;2024-03-23T04:31:42;100376.11;;;4.59;87.69
62928;BME280;51070;52.236;-0.892;2024-03-23T04:34:08;100371.18;;;4.60;87.43
62928;BME280;51070;52.236;-0.892;2024-03-23T04:36:33;100375.13;;;4.60;87.71
62928;BME280;51070;52.236;-0.892;2024-03-23T04:38:58;100370.52;;;4.60;87.52
62928;BME280;51070;52.236;-0.892;2024-03-23T04:41:24;100368.02;;;4.61;87.42
62928;BME280;51070;52.236;-0.892;2024-03-23T04:43:50;100368.86;;;4.61;87.38
62928;BME280;51070;52.236;-0.892;2024-03-23T04:46:15;100369.98;;;4.60;87.54
62928;BME280;51070;52.236;-0.892;2024-03-23T04:48:40;100368.88;;;4.58;87.60
62928;BME280;51070;52.236;-0.892;2024-03-23T04:51:06;100369.14;;;4.57;87.58
62928;BME280;51070;52.236;-0.892;2024-03-23T04:53:31;100372.00;;;4.56;87.59
62928;BME280;51070;52.236;-0.892;2024-03-23T04:55:56;100374.30;;;4.54;87.87
62928;BME280;51070;52.236;-0.892;2024-03-23T04:58:24;100371.36;;;4.53;87.66
62928;BME280;51070;52.236;-0.892;2024-03-23T05:00:53;100370.90;;;4.51;87.88
62928;BME280;51070;52.236;-0.892;2024-03-23T05:03:18;100366.89;;;4.49;87.74
62928;BME280;51070;52.236;-0.892;2024-03-23T05:05:44;100366.85;;;4.49;87.77
62928;BME280;51070;52.236;-0.892;2024-03-23T05:08:09;100365.98;;;4.48;87.77
62928;BME280;51070;52.236;-0.892;2024-03-23T05:10:35;100357.40;;;4.47;87.80
62928;BME280;51070;52.236;-0.892;2024-03-23T05:13:00;100358.30;;;4.49;87.70
62928;BME280;51070;52.236;-0.892;2024-03-23T05:15:26;100355.73;;;4.49;87.64
62928;BME280;51070;52.236;-0.892;2024-03-23T05:17:52;100354.20;;;4.49;87.79
62928;BME280;51070;52.236;-0.892;2024-03-23T05:20:18;100355.21;;;4.49;87.51
62928;BME280;51070;52.236;-0.892;2024-03-23T05:22:44;100356.10;;;4.49;87.73
62928;BME280;51070;52.236;-0.892;2024-03-23T05:25:09;100350.59;;;4.49;87.92
62928;BME280;51070;52.236;-0.892;2024-03-23T05:27:35;100349.20;;;4.48;87.83
62928;BME280;51070;52.236;-0.892;2024-03-23T05:30:01;100349.06;;;4.49;87.83
62928;BME280;51070;52.236;-0.892;2024-03-23T05:32:27;100348.71;;;4.48;87.98
62928;BME280;51070;52.236;-0.892;2024-03-23T05:34:53;100348.70;;;4.48;87.92
62928;BME280;51070;52.236;-0.892;2024-03-23T05:37:21;100352.52;;;4.50;88.02
62928;BME280;51070;52.236;-0.892;2024-03-23T05:39:46;100351.38;;;4.50;88.05
62928;BME280;51070;52.236;-0.892;2024-03-23T05:42:13;100352.99;;;4.52;88.09
62928;BME280;51070;52.236;-0.892;2024-03-23T05:44:39;100351.15;;;4.52;87.99
62928;BME280;51070;52.236;-0.892;2024-03-23T05:47:05;100352.69;;;4.52;87.85
62928;BME280;51070;52.236;-0.892;2024-03-23T05:49:30;100349.95;;;4.52;87.92
62928;BME280;51070;52.236;-0.892;2024-03-23T05:51:55;100351.44;;;4.51;87.92
62928;BME280;51070;52.236;-0.892;2024-03-23T05:54:21;100350.71;;;4.51;87.90
62928;BME280;51070;52.236;-0.892;2024-03-23T05:56:46;100347.76;;;4.50;87.95
62928;BME280;51070;52.236;-0.892;2024-03-23T05:59:11;100342.61;;;4.50;88.14
62928;BME280;51070;52.236;-0.892;2024-03-23T06:01:37;100338.08;;;4.51;87.77
62928;BME280;51070;52.236;-0.892;2024-03-23T06:04:04;100339.17;;;4.52;87.79
62928;BME280;51070;52.236;-0.892;2024-03-23T06:06:29;100337.17;;;4.54;87.71
62928;BME280;51070;52.236;-0.892;2024-03-23T06:08:55;100336.27;;;4.56;87.92
62928;BME280;51070;52.236;-0.892;2024-03-23T06:11:20;100331.19;;;4.57;88.00
62928;BME280;51070;52.236;-0.892;2024-03-23T06:13:46;100330.06;;;4.59;87.65
62928;BME280;51070;52.236;-0.892;2024-03-23T06:16:11;100320.95;;;4.61;87.70
62928;BME280;51070;52.236;-0.892;2024-03-23T06:18:36;100318.66;;;4.63;87.38
62928;BME280;51070;52.236;-0.892;2024-03-23T06:21:01;100318.06;;;4.65;87.49
62928;BME280;51070;52.236;-0.892;2024-03-23T06:23:27;100318.23;;;4.69;87.45
62928;BME280;51070;52.236;-0.892;2024-03-23T06:25:52;100318.61;;;4.73;87.36
62928;BME280;51070;52.236;-0.892;2024-03-23T06:28:17;100318.23;;;4.76;86.93
62928;BME280;51070;52.236;-0.892;2024-03-23T06:30:43;100317.36;;;4.79;86.85
62928;BME280;51070;52.236;-0.892;2024-03-23T06:33:08;100327.02;;;4.84;86.73
62928;BME280;51070;52.236;-0.892;2024-03-23T06:35:34;100320.06;;;4.89;86.45
62928;BME280;51070;52.236;-0.892;2024-03-23T06:37:59;100319.56;;;4.92;86.60
62928;BME280;51070;52.236;-0.892;2024-03-23T06:40:24;100321.96;;;4.96;86.39
62928;BME280;51070;52.236;-0.892;2024-03-23T06:42:49;100322.58;;;4.98;86.27
62928;BME280;51070;52.236;-0.892;2024-03-23T06:45:15;100319.14;;;5.01;86.03
62928;BME280;51070;52.236;-0.892;2024-03-23T06:47:40;100308.60;;;5.03;86.14
62928;BME280;51070;52.236;-0.892;2024-03-23T06:50:06;100293.83;;;5.06;86.18
62928;BME280;51070;52.236;-0.892;2024-03-23T06:52:31;100287.14;;;5.09;86.00
62928;BME280;51070;52.236;-0.892;2024-03-23T06:54:57;100282.80;;;5.12;85.79
62928;BME280;51070;52.236;-0.892;2024-03-23T06:57:23;100278.77;;;5.14;85.62
62928;BME280;51070;52.236;-0.892;2024-03-23T06:59:48;100282.21;;;5.17;85.49
62928;BME280;51070;52.236;-0.892;2024-03-23T07:02:13;100271.69;;;5.20;85.23
62928;BME280;51070;52.236;-0.892;2024-03-23T07:04:39;100273.41;;;5.24;85.42
62928;BME280;51070;52.236;-0.892;2024-03-23T07:07:05;100273.42;;;5.27;85.34
62928;BME280;51070;52.236;-0.892;2024-03-23T07:09:30;100272.86;;;5.30;85.07
62928;BME280;51070;52.236;-0.892;2024-03-23T07:11:56;100278.50;;;5.34;84.97
62928;BME280;51070;52.236;-0.892;2024-03-23T07:14:22;100277.30;;;5.37;84.89
62928;BME280;51070;52.236;-0.892;2024-03-23T07:16:48;100281.92;;;5.41;84.71
62928;BME280;51070;52.236;-0.892;2024-03-23T07:19:14;100288.61;;;5.44;84.42
62928;BME280;51070;52.236;-0.892;2024-03-23T07:21:41;100291.86;;;5.48;84.05
62928;BME280;51070;52.236;-0.892;2024-03-23T07:24:07;100288.88;;;5.54;83.86
62928;BME280;51070;52.236;-0.892;2024-03-23T07:26:32;100290.59;;;5.58;83.68
62928;BME280;51070;52.236;-0.892;2024-03-23T07:28:58;100290.42;;;5.62;83.41
62928;BME280;51070;52.236;-0.892;2024-03-23T07:31:23;100282.30;;;5.64;83.13
62928;BME280;51070;52.236;-0.892;2024-03-23T07:33:49;100272.78;;;5.66;82.84
62928;BME280;51070;52.236;-0.892;2024-03-23T07:36:15;100269.61;;;5.68;83.09
62928;BME280;51070;52.236;-0.892;2024-03-23T07:38:40;100269.54;;;5.70;82.74
62928;BME280;51070;52.236;-0.892;2024-03-23T07:41:07;100272.26;;;5.74;82.57
62928;BME280;51070;52.236;-0.892;2024-03-23T07:43:34;100268.48;;;5.77;82.31
62928;BME280;51070;52.236;-0.892;2024-03-23T07:45:59;100259.80;;;5.82;82.31
62928;BME280;51070;52.236;-0.892;2024-03-23T07:48:26;100270.87;;;5.88;82.32
62928;BME280;51070;52.236;-0.892;2024-03-23T07:50:58;100272.33;;;5.94;81.84
62928;BME280;51070;52.236;-0.892;2024-03-23T07:53:24;100270.67;;;6.00;81.83
62928;BME280;51070;52.236;-0.892;2024-03-23T07:55:53;100266.32;;;6.05;81.54
62928;BME280;51070;52.236;-0.892;2024-03-23T07:58:19;100263.99;;;6.11;81.41
62928;BME280;51070;52.236;-0.892;2024-03-23T08:00:45;100262.34;;;6.16;81.29
62928;BME280;51070;52.236;-0.892;2024-03-23T08:03:10;100267.31;;;6.21;80.88
62928;BME280;51070;52.236;-0.892;2024-03-23T08:05:35;100265.55;;;6.28;80.45
62928;BME280;51070;52.236;-0.892;2024-03-23T08:08:00;100269.44;;;6.35;80.48
62928;BME280;51070;52.236;-0.892;2024-03-23T08:10:25;100266.71;;;6.40;80.00
62928;BME280;51070;52.236;-0.892;2024-03-23T08:12:51;100259.02;;;6.48;79.86
62928;BME280;51070;52.236;-0.892;2024-03-23T08:15:16;100260.52;;;6.59;79.27
62928;BME280;51070;52.236;-0.892;2024-03-23T08:17:41;100252.77;;;6.72;78.83
62928;BME280;51070;52.236;-0.892;2024-03-23T08:20:07;100250.63;;;6.96;78.23
62928;BME280;51070;52.236;-0.892;2024-03-23T08:22:33;100251.09;;;7.21;77.09
62928;BME280;51070;52.236;-0.892;2024-03-23T08:24:58;100252.20;;;7.46;76.19
62928;BME280;51070;52.236;-0.892;2024-03-23T08:27:23;100252.68;;;7.78;74.57
62928;BME280;51070;52.236;-0.892;2024-03-23T08:29:48;100247.83;;;7.86;73.99
62928;BME280;51070;52.236;-0.892;2024-03-23T08:32:14;100242.27;;;7.94;73.52
62928;BME280;51070;52.236;-0.892;2024-03-23T08:34:39;100244.61;;;8.03;73.08
62928;BME280;51070;52.236;-0.892;2024-03-23T08:37:04;100240.48;;;7.98;72.33
62928;BME280;51070;52.236;-0.892;2024-03-23T08:39:30;100238.45;;;7.89;72.21
62928;BME280;51070;52.236;-0.892;2024-03-23T08:41:55;100241.16;;;7.88;72.68
62928;BME280;51070;52.236;-0.892;2024-03-23T08:44:20;100240.94;;;7.82;72.51
62928;BME280;51070;52.236;-0.892;2024-03-23T08:46:45;100232.58;;;7.83;72.80
62928;BME280;51070;52.236;-0.892;2024-03-23T08:49:11;100239.68;;;8.05;71.85
62928;BME280;51070;52.236;-0.892;2024-03-23T08:51:37;100230.42;;;8.16;71.74
62928;BME280;51070;52.236;-0.892;2024-03-23T08:54:03;100227.19;;;8.52;71.07
62928;BME280;51070;52.236;-0.892;2024-03-23T08:56:28;100232.73;;;9.02;69.79
62928;BME280;51070;52.236;-0.892;2024-03-23T08:58:53;100226.45;;;9.46;68.15
62928;BME280;51070;52.236;-0.892;2024-03-23T09:01:19;100226.84;;;11.03;64.63
62928;BME280;51070;52.236;-0.892;2024-03-23T09:03:44;100211.92;;;12.95;59.25
62928;BME280;51070;52.236;-0.892;2024-03-23T09:06:11;100226.35;;;13.57;56.42
62928;BME280;51070;52.236;-0.892;2024-03-23T09:08:36;100224.89;;;13.13;55.52
62928;BME280;51070;52.236;-0.892;2024-03-23T09:11:05;100218.81;;;13.15;56.04
62928;BME280;51070;52.236;-0.892;2024-03-23T09:13:32;100214.52;;;14.35;52.88
62928;BME280;51070;52.236;-0.892;2024-03-23T09:15:57;100223.66;;;14.13;51.87
62928;BME280;51070;52.236;-0.892;2024-03-23T09:18:22;100214.86;;;14.18;51.64
62928;BME280;51070;52.236;-0.892;2024-03-23T09:20:49;100228.23;;;14.01;50.97
62928;BME280;51070;52.236;-0.892;2024-03-23T09:23:14;100229.92;;;13.38;51.56
62928;BME280;51070;52.236;-0.892;2024-03-23T09:25:39;100223.77;;;12.74;52.02
62928;BME280;51070;52.236;-0.892;2024-03-23T09:28:05;100222.72;;;12.73;52.29
62928;BME280;51070;52.236;-0.892;2024-03-23T09:30:32;100221.97;;;12.38;52.96
62928;BME280;51070;52.236;-0.892;2024-03-23T09:32:57;100219.69;;;12.57;53.19
62928;BME280;51070;52.236;-0.892;2024-03-23T09:35:22;100211.26;;;13.76;51.15
62928;BME280;51070;52.236;-0.892;2024-03-23T09:37:48;100214.75;;;14.64;49.69
62928;BME280;51070;52.236;-0.892;2024-03-23T09:40:13;100206.31;;;15.78;46.81
62928;BME280;51070;52.236;-0.892;2024-03-23T09:42:38;100207.48;;;16.34;44.60
62928;BME280;51070;52.236;-0.892;2024-03-23T09:45:09;100195.20;;;15.38;46.42
62928;BME280;51070;52.236;-0.892;2024-03-23T09:47:39;100193.33;;;14.38;47.37
62928;BME280;51070;52.236;-0.892;2024-03-23T09:50:05;100190.78;;;13.74;48.78
62928;BME280;51070;52.236;-0.892;2024-03-23T09:52:32;100182.35;;;13.49;49.12
62928;BME280;51070;52.236;-0.892;2024-03-23T09:54:58;100194.57;;;13.16;49.39
62928;BME280;51070;52.236;-0.892;2024-03-23T09:57:23;100190.55;;;12.78;49.66
62928;BME280;51070;52.236;-0.892;2024-03-23T09:59:49;100202.86;;;12.78;49.48
62928;BME280;51070;52.236;-0.892;2024-03-23T10:02:15;100192.41;;;13.67;48.77
62928;BME280;51070;52.236;-0.892;2024-03-23T10:04:42;100195.88;;;14.51;47.06
62928;BME280;51070;52.236;-0.892;2024-03-23T10:07:15;100191.20;;;14.34;47.05
62928;BME280;51070;52.236;-0.892;2024-03-23T10:09:42;100188.09;;;13.67;48.03
62928;BME280;51070;52.236;-0.892;2024-03-23T10:12:10;100191.77;;;13.15;49.35
62928;BME280;51070;52.236;-0.892;2024-03-23T10:14:37;100190.88;;;12.88;49.75
62928;BME280;51070;52.236;-0.892;2024-03-23T10:17:12;100191.88;;;12.63;50.22
62928;BME280;51070;52.236;-0.892;2024-03-23T10:19:39;100185.04;;;12.93;50.33
62928;BME280;51070;52.236;-0.892;2024-03-23T10:22:04;100186.01;;;12.64;50.65
62928;BME280;51070;52.236;-0.892;2024-03-23T10:24:29;100183.49;;;12.38;50.91
62928;BME280;51070;52.236;-0.892;2024-03-23T10:26:58;100180.42;;;12.20;50.98
62928;BME280;51070;52.236;-0.892;2024-03-23T10:29:23;100175.23;;;11.99;51.96
62928;BME280;51070;52.236;-0.892;2024-03-23T10:31:48;100173.58;;;11.67;53.13
62928;BME280;51070;52.236;-0.892;2024-03-23T10:34:14;100184.95;;;11.39;54.90
62928;BME280;51070;52.236;-0.892;2024-03-23T10:36:40;100194.27;;;11.38;55.28
62928;BME280;51070;52.236;-0.892;2024-03-23T10:39:07;100192.09;;;11.17;56.06
62928;BME280;51070;52.236;-0.892;2024-03-23T10:41:32;100187.61;;;10.86;57.37
62928;BME280;51070;52.236;-0.892;2024-03-23T10:43:58;100184.84;;;10.71;58.66
62928;BME280;51070;52.236;-0.892;2024-03-23T10:46:25;100187.90;;;10.68;59.61
62928;BME280;51070;52.236;-0.892;2024-03-23T10:48:50;100180.66;;;10.61;59.97
62928;BME280;51070;52.236;-0.892;2024-03-23T10:51:15;100179.77;;;10.46;60.57
62928;BME280;51070;52.236;-0.892;2024-03-23T10:53:41;100178.23;;;10.25;61.25
62928;BME280;51070;52.236;-0.892;2024-03-23T10:56:07;100180.55;;;9.96;61.84
62928;BME280;51070;52.236;-0.892;2024-03-23T10:58:36;100175.80;;;9.67;63.42
62928;BME280;51070;52.236;-0.892;2024-03-23T11:01:02;100162.96;;;9.45;64.17
62928;BME280;51070;52.236;-0.892;2024-03-23T11:05:56;100137.39;;;9.43;65.09
62928;BME280;51070;52.236;-0.892;2024-03-23T11:08:33;100137.54;;;9.48;65.08
62928;BME280;51070;52.236;-0.892;2024-03-23T11:11:12;100139.48;;;9.51;64.87
62928;BME280;51070;52.236;-0.892;2024-03-23T11:13:38;100127.81;;;9.59;64.48
62928;BME280;51070;52.236;-0.892;2024-03-23T11:18:48;100127.02;;;10.02;65.22
62928;BME280;51070;52.236;-0.892;2024-03-23T11:21:51;100132.66;;;10.07;64.95
62928;BME280;51070;52.236;-0.892;2024-03-23T11:24:14;100133.24;;;9.95;65.72
62928;BME280;51070;52.236;-0.892;2024-03-23T11:26:39;100128.70;;;9.73;66.71
62928;BME280;51070;52.236;-0.892;2024-03-23T11:29:08;100138.78;;;9.63;67.15
62928;BME280;51070;52.236;-0.892;2024-03-23T11:31:34;100138.30;;;9.57;68.03
62928;BME280;51070;52.236;-0.892;2024-03-23T11:34:04;100137.84;;;9.73;68.18
62928;BME280;51070;52.236;-0.892;2024-03-23T11:36:30;100140.73;;;10.24;68.18
62928;BME280;51070;52.236;-0.892;2024-03-23T11:38:55;100141.31;;;10.72;67.31
62928;BME280;51070;52.236;-0.892;2024-03-23T11:41:20;100136.34;;;10.97;65.94
62928;BME280;51070;52.236;-0.892;2024-03-23T11:43:45;100131.55;;;10.99;64.86
62928;BME280;51070;52.236;-0.892;2024-03-23T11:46:11;100126.45;;;10.96;64.37
62928;BME280;51070;52.236;-0.892;2024-03-23T11:48:36;100112.77;;;10.86;63.64
62928;BME280;51070;52.236;-0.892;2024-03-23T11:51:01;100108.05;;;10.60;63.83
62928;BME280;51070;52.236;-0.892;2024-03-23T11:53:26;100115.15;;;10.38;64.52
62928;BME280;51070;52.236;-0.892;2024-03-23T11:55:56;100112.91;;;10.17;64.56
62928;BME280;51070;52.236;-0.892;2024-03-23T11:58:22;100114.03;;;10.07;64.82
62928;BME280;51070;52.236;-0.892;2024-03-23T12:00:57;100113.39;;;10.16;64.49
62928;BME280;51070;52.236;-0.892;2024-03-23T12:03:23;100111.53;;;10.38;63.85
62928;BME280;51070;52.236;-0.892;2024-03-23T12:05:53;100103.09;;;10.70;63.34
62928;BME280;51070;52.236;-0.892;2024-03-23T12:08:20;100093.08;;;11.21;63.46
62928;BME280;51070;52.236;-0.892;2024-03-23T12:10:50;100085.47;;;11.77;63.01
62928;BME280;51070;52.236;-0.892;2024-03-23T12:13:16;100091.30;;;12.13;60.58
62928;BME280;51070;52.236;-0.892;2024-03-23T12:15:42;100090.13;;;12.16;58.95
62928;BME280;51070;52.236;-0.892;2024-03-23T12:18:08;100087.15;;;11.94;57.64
62928;BME280;51070;52.236;-0.892;2024-03-23T12:20:34;100086.79;;;11.63;57.45
62928;BME280;51070;52.236;-0.892;2024-03-23T12:23:06;100077.51;;;11.48;58.34
62928;BME280;51070;52.236;-0.892;2024-03-23T12:25:31;100087.35;;;11.57;58.47
62928;BME280;51070;52.236;-0.892;2024-03-23T12:28:00;100091.84;;;11.65;57.41
62928;BME280;51070;52.236;-0.892;2024-03-23T12:30:25;100086.56;;;11.70;56.61
62928;BME280;51070;52.236;-0.892;2024-03-23T12:32:50;100084.00;;;11.63;56.31
62928;BME280;51070;52.236;-0.892;2024-03-23T12:35:16;100088.00;;;11.45;55.81
62928;BME280;51070;52.236;-0.892;2024-03-23T12:37:41;100079.83;;;11.15;56.27
62928;BME280;51070;52.236;-0.892;2024-03-23T12:40:06;100078.67;;;10.84;56.84
62928;BME280;51070;52.236;-0.892;2024-03-23T12:42:32;100074.08;;;10.79;57.81
62928;BME280;51070;52.236;-0.892;2024-03-23T12:44:58;100076.35;;;10.97;58.03
62928;BME280;51070;52.236;-0.892;2024-03-23T12:47:23;100068.27;;;10.99;58.29
62928;BME280;51070;52.236;-0.892;2024-03-23T12:49:48;100065.34;;;10.99;58.56
62928;BME280;51070;52.236;-0.892;2024-03-23T12:52:14;100057.13;;;10.96;57.87
62928;BME280;51070;52.236;-0.892;2024-03-23T12:54:40;100055.33;;;11.01;58.47
62928;BME280;51070;52.236;-0.892;2024-03-23T12:57:05;100050.59;;;11.05;58.45
62928;BME280;51070;52.236;-0.892;2024-03-23T12:59:30;100038.93;;;11.11;58.55
62928;BME280;51070;52.236;-0.892;2024-03-23T13:01:55;100034.40;;;11.18;58.62
62928;BME280;51070;52.236;-0.892;2024-03-23T13:04:21;100031.33;;;11.20;58.32
62928;BME280;51070;52.236;-0.892;2024-03-23T13:06:47;100028.63;;;11.24;57.84
62928;BME280;51070;52.236;-0.892;2024-03-23T13:09:12;100025.90;;;11.26;57.82
62928;BME280;51070;52.236;-0.892;2024-03-23T13:11:37;100026.48;;;11.29;58.04
62928;BME280;51070;52.236;-0.892;2024-03-23T13:14:03;100034.77;;;11.38;58.06
62928;BME280;51070;52.236;-0.892;2024-03-23T13:16:29;100034.48;;;11.42;58.44
62928;BME280;51070;52.236;-0.892;2024-03-23T13:18:54;100033.55;;;11.38;58.44
62928;BME280;51070;52.236;-0.892;2024-03-23T13:21:19;100029.54;;;11.45;58.19
62928;BME280;51070;52.236;-0.892;2024-03-23T13:23:47;100029.91;;;11.48;57.79
62928;BME280;51070;52.236;-0.892;2024-03-23T13:26:15;100032.41;;;11.42;57.31
62928;BME280;51070;52.236;-0.892;2024-03-23T13:28:40;100027.42;;;11.44;57.71
62928;BME280;51070;52.236;-0.892;2024-03-23T13:31:06;100023.63;;;11.54;57.80
62928;BME280;51070;52.236;-0.892;2024-03-23T13:33:33;100019.76;;;11.70;57.23
62928;BME280;51070;52.236;-0.892;2024-03-23T13:35:58;100021.19;;;11.82;56.58
62928;BME280;51070;52.236;-0.892;2024-03-23T13:38:24;100021.17;;;11.82;56.29
62928;BME280;51070;52.236;-0.892;2024-03-23T13:40:50;100014.66;;;11.74;54.97